sensor_id;sensor_type;location;lat;lon;timestamp;P1;durP1;ratioP1;P2;durP2;ratioP2
53549;SDS011;67273;52.914;-0.982;2023-08-06T00:02:15;5.60;;;2.83;;
53549;SDS011;67273;52.914;-0.982;2023-08-06T00:04:41;3.80;;;2.35;;
53549;SDS011;67273;52.914;-0.982;2023-08-06T00:07:07;4.55;;;2.65;;
53549;SDS011;67273;52.914;-0.982;2023-08-06T00:09:32;5.30;;;2.83;;
53549;SDS011;67273;52.914;-0.982;2023-08-06T00:11:59;4.88;;;2.60;;
53549;SDS011;67273;52.914;-0.982;2023-08-06T00:14:25;4.43;;;2.75;;
53549;SDS011;67273;52.914;-0.982;2023-08-06T00:16:51;5.05;;;2.95;;
53549;SDS011;67273;52.914;-0.982;2023-08-06T00:19:16;4.18;;;2.78;;
53549;SDS011;67273;52.914;-0.982;2023-08-06T00:21:42;4.22;;;2.72;;
53549;SDS011;67273;52.914;-0.982;2023-08-06T00:24:08;5.80;;;2.80;;
53549;SDS011;67273;52.914;-0.982;2023-08-06T00:26:34;3.88;;;2.60;;
53549;SDS011;67273;52.914;-0.982;2023-08-06T00:29:01;3.95;;;2.42;;
53549;SDS011;67273;52.914;-0.982;2023-08-06T00:31:27;5.13;;;2.60;;
53549;SDS011;67273;52.914;-0.982;2023-08-06T00:33:52;5.47;;;2.92;;
53549;SDS011;67273;52.914;-0.982;2023-08-06T00:36:18;4.07;;;2.50;;
53549;SDS011;67273;52.914;-0.982;2023-08-06T00:38:44;4.55;;;2.88;;
53549;SDS011;67273;52.914;-0.982;2023-08-06T00:41:10;4.68;;;2.42;;
53549;SDS011;67273;52.914;-0.982;2023-08-06T00:43:36;5.63;;;2.70;;
53549;SDS011;67273;52.914;-0.982;2023-08-06T00:46:03;3.88;;;2.60;;
53549;SDS011;67273;52.914;-0.982;2023-08-06T00:48:29;4.47;;;2.78;;
53549;SDS011;67273;52.914;-0.982;2023-08-06T00:50:55;5.90;;;2.80;;
53549;SDS011;67273;52.914;-0.982;2023-08-06T00:53:21;6.18;;;2.60;;
53549;SDS011;67273;52.914;-0.982;2023-08-06T00:55:47;6.63;;;2.80;;
53549;SDS011;67273;52.914;-0.982;2023-08-06T00:58:13;5.93;;;2.92;;
53549;SDS011;67273;52.914;-0.982;2023-08-06T01:00:40;4.72;;;2.90;;
53549;SDS011;67273;52.914;-0.982;2023-08-06T01:03:07;4.45;;;2.88;;
53549;SDS011;67273;52.914;-0.982;2023-08-06T01:05:33;3.75;;;2.50;;
53549;SDS011;67273;52.914;-0.982;2023-08-06T01:08:04;4.70;;;2.45;;
53549;SDS011;67273;52.914;-0.982;2023-08-06T01:10:40;5.60;;;2.92;;
53549;SDS011;67273;52.914;-0.982;2023-08-06T01:13:16;4.18;;;2.50;;
53549;SDS011;67273;52.914;-0.982;2023-08-06T01:15:49;3.65;;;2.50;;
53549;SDS011;67273;52.914;-0.982;2023-08-06T01:18:22;5.32;;;2.90;;
53549;SDS011;67273;52.914;-0.982;2023-08-06T01:20:49;5.75;;;2.85;;
53549;SDS011;67273;52.914;-0.982;2023-08-06T01:23:15;4.82;;;2.50;;
53549;SDS011;67273;52.914;-0.982;2023-08-06T01:25:43;4.07;;;2.42;;
53549;SDS011;67273;52.914;-0.982;2023-08-06T01:30:44;3.33;;;2.50;;
53549;SDS011;67273;52.914;-0.982;2023-08-06T01:33:13;3.72;;;2.45;;
53549;SDS011;67273;52.914;-0.982;2023-08-06T01:35:44;3.15;;;2.28;;
53549;SDS011;67273;52.914;-0.982;2023-08-06T01:38:12;4.50;;;2.70;;
53549;SDS011;67273;52.914;-0.982;2023-08-06T01:40:38;4.00;;;2.20;;
53549;SDS011;67273;52.914;-0.982;2023-08-06T01:43:04;3.75;;;2.40;;
53549;SDS011;67273;52.914;-0.982;2023-08-06T01:45:30;5.05;;;2.70;;
53549;SDS011;67273;52.914;-0.982;2023-08-06T01:47:56;3.67;;;2.30;;
53549;SDS011;67273;52.914;-0.982;2023-08-06T01:50:23;3.70;;;2.45;;
53549;SDS011;67273;52.914;-0.982;2023-08-06T01:52:51;4.72;;;2.55;;
53549;SDS011;67273;52.914;-0.982;2023-08-06T01:55:19;5.00;;;2.90;;
53549;SDS011;67273;52.914;-0.982;2023-08-06T01:57:44;4.45;;;2.40;;
53549;SDS011;67273;52.914;-0.982;2023-08-06T02:00:11;4.18;;;2.58;;
53549;SDS011;67273;52.914;-0.982;2023-08-06T02:02:40;3.63;;;2.35;;
53549;SDS011;67273;52.914;-0.982;2023-08-06T02:05:07;3.17;;;2.42;;
53549;SDS011;67273;52.914;-0.982;2023-08-06T02:07:35;4.18;;;2.40;;
53549;SDS011;67273;52.914;-0.982;2023-08-06T02:10:03;4.70;;;2.50;;
53549;SDS011;67273;52.914;-0.982;2023-08-06T02:12:34;3.70;;;2.67;;
53549;SDS011;67273;52.914;-0.982;2023-08-06T02:15:01;2.85;;;2.17;;
53549;SDS011;67273;52.914;-0.982;2023-08-06T02:17:27;3.55;;;2.40;;
53549;SDS011;67273;52.914;-0.982;2023-08-06T02:19:52;3.25;;;2.25;;
53549;SDS011;67273;52.914;-0.982;2023-08-06T02:22:18;3.65;;;2.28;;
53549;SDS011;67273;52.914;-0.982;2023-08-06T02:24:44;4.43;;;2.25;;
53549;SDS011;67273;52.914;-0.982;2023-08-06T02:27:09;3.95;;;2.38;;
53549;SDS011;67273;52.914;-0.982;2023-08-06T02:29:36;3.38;;;2.28;;
53549;SDS011;67273;52.914;-0.982;2023-08-06T02:32:05;5.53;;;2.60;;
53549;SDS011;67273;52.914;-0.982;2023-08-06T02:34:32;3.75;;;2.78;;
53549;SDS011;67273;52.914;-0.982;2023-08-06T02:36:58;4.28;;;2.60;;
53549;SDS011;67273;52.914;-0.982;2023-08-06T02:39:23;3.95;;;2.60;;
53549;SDS011;67273;52.914;-0.982;2023-08-06T02:41:51;4.03;;;2.40;;
53549;SDS011;67273;52.914;-0.982;2023-08-06T02:44:19;2.75;;;2.17;;
53549;SDS011;67273;52.914;-0.982;2023-08-06T02:46:50;3.67;;;2.47;;
53549;SDS011;67273;52.914;-0.982;2023-08-06T02:49:17;5.70;;;2.38;;
53549;SDS011;67273;52.914;-0.982;2023-08-06T02:51:45;3.05;;;2.28;;
53549;SDS011;67273;52.914;-0.982;2023-08-06T02:54:13;3.20;;;2.10;;
53549;SDS011;67273;52.914;-0.982;2023-08-06T02:56:39;3.33;;;2.03;;
53549;SDS011;67273;52.914;-0.982;2023-08-06T02:59:15;3.85;;;2.17;;
53549;SDS011;67273;52.914;-0.982;2023-08-06T03:01:51;4.15;;;2.53;;
53549;SDS011;67273;52.914;-0.982;2023-08-06T03:04:23;4.18;;;2.50;;
53549;SDS011;67273;52.914;-0.982;2023-08-06T03:06:50;3.90;;;2.40;;
53549;SDS011;67273;52.914;-0.982;2023-08-06T03:09:17;3.30;;;2.50;;
53549;SDS011;67273;52.914;-0.982;2023-08-06T03:11:43;4.10;;;2.47;;
53549;SDS011;67273;52.914;-0.982;2023-08-06T03:14:12;4.95;;;2.67;;
53549;SDS011;67273;52.914;-0.982;2023-08-06T03:16:38;2.65;;;2.00;;
53549;SDS011;67273;52.914;-0.982;2023-08-06T03:19:06;4.13;;;2.78;;
53549;SDS011;67273;52.914;-0.982;2023-08-06T03:21:33;3.33;;;2.20;;
53549;SDS011;67273;52.914;-0.982;2023-08-06T03:23:59;3.47;;;2.20;;
53549;SDS011;67273;52.914;-0.982;2023-08-06T03:26:28;6.38;;;2.63;;
53549;SDS011;67273;52.914;-0.982;2023-08-06T03:28:54;4.68;;;2.55;;
53549;SDS011;67273;52.914;-0.982;2023-08-06T03:31:21;4.03;;;2.50;;
53549;SDS011;67273;52.914;-0.982;2023-08-06T03:33:47;4.22;;;2.00;;
53549;SDS011;67273;52.914;-0.982;2023-08-06T03:36:17;5.03;;;2.70;;
53549;SDS011;67273;52.914;-0.982;2023-08-06T03:38:43;3.33;;;2.28;;
53549;SDS011;67273;52.914;-0.982;2023-08-06T03:41:11;5.35;;;2.28;;
53549;SDS011;67273;52.914;-0.982;2023-08-06T03:43:37;4.88;;;2.80;;
53549;SDS011;67273;52.914;-0.982;2023-08-06T03:46:07;3.85;;;2.47;;
53549;SDS011;67273;52.914;-0.982;2023-08-06T03:48:33;4.22;;;2.40;;
53549;SDS011;67273;52.914;-0.982;2023-08-06T03:51:00;3.65;;;2.05;;
53549;SDS011;67273;52.914;-0.982;2023-08-06T03:53:28;4.00;;;2.17;;
53549;SDS011;67273;52.914;-0.982;2023-08-06T03:55:54;4.35;;;2.42;;
53549;SDS011;67273;52.914;-0.982;2023-08-06T03:58:24;6.10;;;2.20;;
53549;SDS011;67273;52.914;-0.982;2023-08-06T04:00:57;3.03;;;2.38;;
53549;SDS011;67273;52.914;-0.982;2023-08-06T04:03:23;3.70;;;2.40;;
53549;SDS011;67273;52.914;-0.982;2023-08-06T04:05:49;4.93;;;2.45;;
53549;SDS011;67273;52.914;-0.982;2023-08-06T04:08:15;3.17;;;2.10;;
53549;SDS011;67273;52.914;-0.982;2023-08-06T04:10:42;3.97;;;2.30;;
53549;SDS011;67273;52.914;-0.982;2023-08-06T04:13:07;2.72;;;1.95;;
53549;SDS011;67273;52.914;-0.982;2023-08-06T04:15:33;5.07;;;2.35;;
53549;SDS011;67273;52.914;-0.982;2023-08-06T04:18:00;4.88;;;2.60;;
53549;SDS011;67273;52.914;-0.982;2023-08-06T04:20:26;3.53;;;2.28;;
53549;SDS011;67273;52.914;-0.982;2023-08-06T04:22:54;3.42;;;2.40;;
53549;SDS011;67273;52.914;-0.982;2023-08-06T04:25:21;3.15;;;2.25;;
53549;SDS011;67273;52.914;-0.982;2023-08-06T04:27:48;4.53;;;2.40;;
53549;SDS011;67273;52.914;-0.982;2023-08-06T04:30:14;4.43;;;2.40;;
53549;SDS011;67273;52.914;-0.982;2023-08-06T04:32:41;3.70;;;2.25;;
53549;SDS011;67273;52.914;-0.982;2023-08-06T04:35:07;2.83;;;2.25;;
53549;SDS011;67273;52.914;-0.982;2023-08-06T04:37:34;2.63;;;2.10;;
53549;SDS011;67273;52.914;-0.982;2023-08-06T04:40:00;4.07;;;2.33;;
53549;SDS011;67273;52.914;-0.982;2023-08-06T04:42:27;4.55;;;2.30;;
53549;SDS011;67273;52.914;-0.982;2023-08-06T04:44:54;3.72;;;2.45;;
53549;SDS011;67273;52.914;-0.982;2023-08-06T04:47:20;4.15;;;2.42;;
53549;SDS011;67273;52.914;-0.982;2023-08-06T04:49:45;2.97;;;2.40;;
53549;SDS011;67273;52.914;-0.982;2023-08-06T04:52:11;4.03;;;2.20;;
53549;SDS011;67273;52.914;-0.982;2023-08-06T04:54:37;4.57;;;2.50;;
53549;SDS011;67273;52.914;-0.982;2023-08-06T04:57:02;4.40;;;2.38;;
53549;SDS011;67273;52.914;-0.982;2023-08-06T04:59:29;5.80;;;2.78;;
53549;SDS011;67273;52.914;-0.982;2023-08-06T05:01:56;4.13;;;2.30;;
53549;SDS011;67273;52.914;-0.982;2023-08-06T05:04:21;4.72;;;2.40;;
53549;SDS011;67273;52.914;-0.982;2023-08-06T05:06:47;3.72;;;2.30;;
53549;SDS011;67273;52.914;-0.982;2023-08-06T05:09:13;4.10;;;2.03;;
53549;SDS011;67273;52.914;-0.982;2023-08-06T05:11:39;3.78;;;2.30;;
53549;SDS011;67273;52.914;-0.982;2023-08-06T05:14:05;2.83;;;2.08;;
53549;SDS011;67273;52.914;-0.982;2023-08-06T05:16:30;3.50;;;2.40;;
53549;SDS011;67273;52.914;-0.982;2023-08-06T05:18:57;3.58;;;2.40;;
53549;SDS011;67273;52.914;-0.982;2023-08-06T05:21:23;3.60;;;2.38;;
53549;SDS011;67273;52.914;-0.982;2023-08-06T05:23:49;2.95;;;2.08;;
53549;SDS011;67273;52.914;-0.982;2023-08-06T05:26:15;3.33;;;2.25;;
53549;SDS011;67273;52.914;-0.982;2023-08-06T05:28:43;2.50;;;2.13;;
53549;SDS011;67273;52.914;-0.982;2023-08-06T05:31:09;3.15;;;2.03;;
53549;SDS011;67273;52.914;-0.982;2023-08-06T05:33:35;3.60;;;2.17;;
53549;SDS011;67273;52.914;-0.982;2023-08-06T05:36:02;3.40;;;2.17;;
53549;SDS011;67273;52.914;-0.982;2023-08-06T05:38:29;3.30;;;2.10;;
53549;SDS011;67273;52.914;-0.982;2023-08-06T05:40:55;2.97;;;2.10;;
53549;SDS011;67273;52.914;-0.982;2023-08-06T05:43:21;3.72;;;2.28;;
53549;SDS011;67273;52.914;-0.982;2023-08-06T05:45:49;4.45;;;2.35;;
53549;SDS011;67273;52.914;-0.982;2023-08-06T05:48:14;2.88;;;2.00;;
53549;SDS011;67273;52.914;-0.982;2023-08-06T05:50:40;2.75;;;1.85;;
53549;SDS011;67273;52.914;-0.982;2023-08-06T05:53:07;3.65;;;2.40;;
53549;SDS011;67273;52.914;-0.982;2023-08-06T05:55:33;3.60;;;2.38;;
53549;SDS011;67273;52.914;-0.982;2023-08-06T05:57:59;4.18;;;2.38;;
53549;SDS011;67273;52.914;-0.982;2023-08-06T06:00:25;3.95;;;2.47;;
53549;SDS011;67273;52.914;-0.982;2023-08-06T06:02:51;3.47;;;1.95;;
53549;SDS011;67273;52.914;-0.982;2023-08-06T06:05:16;2.63;;;2.17;;
53549;SDS011;67273;52.914;-0.982;2023-08-06T06:07:42;3.30;;;2.30;;
53549;SDS011;67273;52.914;-0.982;2023-08-06T06:10:10;2.90;;;1.95;;
53549;SDS011;67273;52.914;-0.982;2023-08-06T06:12:37;3.42;;;2.13;;
53549;SDS011;67273;52.914;-0.982;2023-08-06T06:15:04;2.83;;;2.08;;
53549;SDS011;67273;52.914;-0.982;2023-08-06T06:17:30;5.70;;;2.40;;
53549;SDS011;67273;52.914;-0.982;2023-08-06T06:19:56;2.75;;;2.00;;
53549;SDS011;67273;52.914;-0.982;2023-08-06T06:22:22;4.82;;;2.40;;
53549;SDS011;67273;52.914;-0.982;2023-08-06T06:24:47;3.40;;;2.13;;
53549;SDS011;67273;52.914;-0.982;2023-08-06T06:27:14;3.35;;;2.22;;
53549;SDS011;67273;52.914;-0.982;2023-08-06T06:29:40;2.75;;;2.13;;
53549;SDS011;67273;52.914;-0.982;2023-08-06T06:32:06;3.15;;;2.28;;
53549;SDS011;67273;52.914;-0.982;2023-08-06T06:34:32;4.00;;;2.08;;
53549;SDS011;67273;52.914;-0.982;2023-08-06T06:36:58;2.42;;;1.88;;
53549;SDS011;67273;52.914;-0.982;2023-08-06T06:39:23;2.88;;;2.00;;
53549;SDS011;67273;52.914;-0.982;2023-08-06T06:41:49;2.80;;;2.05;;
53549;SDS011;67273;52.914;-0.982;2023-08-06T06:44:25;3.00;;;2.20;;
53549;SDS011;67273;52.914;-0.982;2023-08-06T06:46:51;4.05;;;2.72;;
53549;SDS011;67273;52.914;-0.982;2023-08-06T06:49:16;3.08;;;2.38;;
53549;SDS011;67273;52.914;-0.982;2023-08-06T06:51:42;4.45;;;2.30;;
53549;SDS011;67273;52.914;-0.982;2023-08-06T06:54:08;3.65;;;2.03;;
53549;SDS011;67273;52.914;-0.982;2023-08-06T06:56:33;4.38;;;2.30;;
53549;SDS011;67273;52.914;-0.982;2023-08-06T06:58:59;2.83;;;2.15;;
53549;SDS011;67273;52.914;-0.982;2023-08-06T07:01:26;5.32;;;2.10;;
53549;SDS011;67273;52.914;-0.982;2023-08-06T07:03:52;3.80;;;2.10;;
53549;SDS011;67273;52.914;-0.982;2023-08-06T07:06:18;3.40;;;2.28;;
53549;SDS011;67273;52.914;-0.982;2023-08-06T07:08:44;3.25;;;2.08;;
53549;SDS011;67273;52.914;-0.982;2023-08-06T07:11:10;3.72;;;2.30;;
53549;SDS011;67273;52.914;-0.982;2023-08-06T07:13:35;3.17;;;2.25;;
53549;SDS011;67273;52.914;-0.982;2023-08-06T07:16:01;3.97;;;2.40;;
53549;SDS011;67273;52.914;-0.982;2023-08-06T07:18:28;4.18;;;2.38;;
53549;SDS011;67273;52.914;-0.982;2023-08-06T07:20:54;3.95;;;2.40;;
53549;SDS011;67273;52.914;-0.982;2023-08-06T07:23:21;4.22;;;2.50;;
53549;SDS011;67273;52.914;-0.982;2023-08-06T07:25:47;3.35;;;2.35;;
53549;SDS011;67273;52.914;-0.982;2023-08-06T07:28:13;4.13;;;2.60;;
53549;SDS011;67273;52.914;-0.982;2023-08-06T07:30:39;4.45;;;2.78;;
53549;SDS011;67273;52.914;-0.982;2023-08-06T07:33:05;4.18;;;2.20;;
53549;SDS011;67273;52.914;-0.982;2023-08-06T07:35:33;3.53;;;2.55;;
53549;SDS011;67273;52.914;-0.982;2023-08-06T07:37:59;4.35;;;2.13;;
53549;SDS011;67273;52.914;-0.982;2023-08-06T07:40:24;4.00;;;2.33;;
53549;SDS011;67273;52.914;-0.982;2023-08-06T07:42:50;3.10;;;2.30;;
53549;SDS011;67273;52.914;-0.982;2023-08-06T07:45:16;3.17;;;2.20;;
53549;SDS011;67273;52.914;-0.982;2023-08-06T07:47:42;2.88;;;2.10;;
53549;SDS011;67273;52.914;-0.982;2023-08-06T07:50:08;3.70;;;2.20;;
53549;SDS011;67273;52.914;-0.982;2023-08-06T07:52:36;3.65;;;2.10;;
53549;SDS011;67273;52.914;-0.982;2023-08-06T07:55:01;4.63;;;2.25;;
53549;SDS011;67273;52.914;-0.982;2023-08-06T07:57:30;3.30;;;2.38;;
53549;SDS011;67273;52.914;-0.982;2023-08-06T07:59:55;3.28;;;2.20;;
53549;SDS011;67273;52.914;-0.982;2023-08-06T08:02:21;3.40;;;2.30;;
53549;SDS011;67273;52.914;-0.982;2023-08-06T08:04:47;3.20;;;2.30;;
53549;SDS011;67273;52.914;-0.982;2023-08-06T08:07:13;2.95;;;2.20;;
53549;SDS011;67273;52.914;-0.982;2023-08-06T08:09:40;4.60;;;2.17;;
53549;SDS011;67273;52.914;-0.982;2023-08-06T08:12:06;3.55;;;2.22;;
53549;SDS011;67273;52.914;-0.982;2023-08-06T08:14:32;3.88;;;2.53;;
53549;SDS011;67273;52.914;-0.982;2023-08-06T08:17:02;3.17;;;2.17;;
53549;SDS011;67273;52.914;-0.982;2023-08-06T08:19:28;2.88;;;2.25;;
53549;SDS011;67273;52.914;-0.982;2023-08-06T08:21:54;3.88;;;2.20;;
53549;SDS011;67273;52.914;-0.982;2023-08-06T08:24:19;3.92;;;2.20;;
53549;SDS011;67273;52.914;-0.982;2023-08-06T08:26:48;2.75;;;2.03;;
53549;SDS011;67273;52.914;-0.982;2023-08-06T08:29:13;2.75;;;1.98;;
53549;SDS011;67273;52.914;-0.982;2023-08-06T08:31:39;7.45;;;2.22;;
53549;SDS011;67273;52.914;-0.982;2023-08-06T08:34:05;3.30;;;2.08;;
53549;SDS011;67273;52.914;-0.982;2023-08-06T08:36:31;3.22;;;2.03;;
53549;SDS011;67273;52.914;-0.982;2023-08-06T08:38:57;4.43;;;1.75;;
53549;SDS011;67273;52.914;-0.982;2023-08-06T08:41:23;3.53;;;2.10;;
53549;SDS011;67273;52.914;-0.982;2023-08-06T08:43:50;2.08;;;1.88;;
53549;SDS011;67273;52.914;-0.982;2023-08-06T08:46:17;2.80;;;1.90;;
53549;SDS011;67273;52.914;-0.982;2023-08-06T08:48:43;1.85;;;1.70;;
53549;SDS011;67273;52.914;-0.982;2023-08-06T08:51:09;2.65;;;2.00;;
53549;SDS011;67273;52.914;-0.982;2023-08-06T08:53:36;3.90;;;1.95;;
53549;SDS011;67273;52.914;-0.982;2023-08-06T08:56:04;2.30;;;1.85;;
53549;SDS011;67273;52.914;-0.982;2023-08-06T08:58:30;3.72;;;1.90;;
53549;SDS011;67273;52.914;-0.982;2023-08-06T09:00:57;2.10;;;1.75;;
53549;SDS011;67273;52.914;-0.982;2023-08-06T09:03:24;3.00;;;1.90;;
53549;SDS011;67273;52.914;-0.982;2023-08-06T09:05:51;2.67;;;1.90;;
53549;SDS011;67273;52.914;-0.982;2023-08-06T09:08:21;2.33;;;1.90;;
53549;SDS011;67273;52.914;-0.982;2023-08-06T09:10:49;2.70;;;2.00;;
53549;SDS011;67273;52.914;-0.982;2023-08-06T09:13:17;2.10;;;1.90;;
53549;SDS011;67273;52.914;-0.982;2023-08-06T09:15:43;3.20;;;2.10;;
53549;SDS011;67273;52.914;-0.982;2023-08-06T09:18:10;2.53;;;1.73;;
53549;SDS011;67273;52.914;-0.982;2023-08-06T09:20:37;2.67;;;2.08;;
53549;SDS011;67273;52.914;-0.982;2023-08-06T09:23:06;3.00;;;1.88;;
53549;SDS011;67273;52.914;-0.982;2023-08-06T09:25:32;1.92;;;1.80;;
53549;SDS011;67273;52.914;-0.982;2023-08-06T09:27:58;2.78;;;1.83;;
53549;SDS011;67273;52.914;-0.982;2023-08-06T09:30:28;3.25;;;2.10;;
53549;SDS011;67273;52.914;-0.982;2023-08-06T09:32:56;2.47;;;1.98;;
53549;SDS011;67273;52.914;-0.982;2023-08-06T09:35:23;2.70;;;2.10;;
53549;SDS011;67273;52.914;-0.982;2023-08-06T09:37:49;3.05;;;2.10;;
53549;SDS011;67273;52.914;-0.982;2023-08-06T09:40:24;2.42;;;2.00;;
53549;SDS011;67273;52.914;-0.982;2023-08-06T09:42:51;2.15;;;1.95;;
53549;SDS011;67273;52.914;-0.982;2023-08-06T09:45:17;2.55;;;2.05;;
53549;SDS011;67273;52.914;-0.982;2023-08-06T09:47:43;2.50;;;1.95;;
53549;SDS011;67273;52.914;-0.982;2023-08-06T09:50:14;2.47;;;1.92;;
53549;SDS011;67273;52.914;-0.982;2023-08-06T09:52:42;2.08;;;1.73;;
53549;SDS011;67273;52.914;-0.982;2023-08-06T09:55:08;3.20;;;2.00;;
53549;SDS011;67273;52.914;-0.982;2023-08-06T09:57:37;2.30;;;1.90;;
53549;SDS011;67273;52.914;-0.982;2023-08-06T10:00:03;3.17;;;1.90;;
53549;SDS011;67273;52.914;-0.982;2023-08-06T10:02:38;2.60;;;1.83;;
53549;SDS011;67273;52.914;-0.982;2023-08-06T10:05:05;2.75;;;1.80;;
53549;SDS011;67273;52.914;-0.982;2023-08-06T10:07:31;2.65;;;1.80;;
53549;SDS011;67273;52.914;-0.982;2023-08-06T10:09:58;2.30;;;1.98;;
53549;SDS011;67273;52.914;-0.982;2023-08-06T10:12:24;2.85;;;2.10;;
53549;SDS011;67273;52.914;-0.982;2023-08-06T10:14:54;2.97;;;1.98;;
53549;SDS011;67273;52.914;-0.982;2023-08-06T10:17:23;2.50;;;1.75;;
53549;SDS011;67273;52.914;-0.982;2023-08-06T10:19:49;3.75;;;1.80;;
53549;SDS011;67273;52.914;-0.982;2023-08-06T10:22:16;2.78;;;2.10;;
53549;SDS011;67273;52.914;-0.982;2023-08-06T10:24:50;2.38;;;1.98;;
53549;SDS011;67273;52.914;-0.982;2023-08-06T10:27:22;3.42;;;2.00;;
53549;SDS011;67273;52.914;-0.982;2023-08-06T10:29:54;2.72;;;1.90;;
53549;SDS011;67273;52.914;-0.982;2023-08-06T10:32:20;2.85;;;1.88;;
53549;SDS011;67273;52.914;-0.982;2023-08-06T10:34:55;2.78;;;1.80;;
53549;SDS011;67273;52.914;-0.982;2023-08-06T10:37:24;2.30;;;1.77;;
53549;SDS011;67273;52.914;-0.982;2023-08-06T10:40:00;2.00;;;1.80;;
53549;SDS011;67273;52.914;-0.982;2023-08-06T10:42:28;2.78;;;1.90;;
53549;SDS011;67273;52.914;-0.982;2023-08-06T10:47:40;2.40;;;1.88;;
53549;SDS011;67273;52.914;-0.982;2023-08-06T10:50:06;3.65;;;1.92;;
53549;SDS011;67273;52.914;-0.982;2023-08-06T10:52:34;2.55;;;2.00;;
53549;SDS011;67273;52.914;-0.982;2023-08-06T10:54:59;1.60;;;1.50;;
53549;SDS011;67273;52.914;-0.982;2023-08-06T10:57:25;3.03;;;1.90;;
53549;SDS011;67273;52.914;-0.982;2023-08-06T10:59:52;2.95;;;1.77;;
53549;SDS011;67273;52.914;-0.982;2023-08-06T11:02:18;2.33;;;1.83;;
53549;SDS011;67273;52.914;-0.982;2023-08-06T11:04:44;1.92;;;1.70;;
53549;SDS011;67273;52.914;-0.982;2023-08-06T11:07:09;2.20;;;1.60;;
53549;SDS011;67273;52.914;-0.982;2023-08-06T11:09:35;2.97;;;2.00;;
53549;SDS011;67273;52.914;-0.982;2023-08-06T11:12:01;2.15;;;1.90;;
53549;SDS011;67273;52.914;-0.982;2023-08-06T11:14:26;1.75;;;1.60;;
53549;SDS011;67273;52.914;-0.982;2023-08-06T11:16:54;2.00;;;1.80;;
53549;SDS011;67273;52.914;-0.982;2023-08-06T11:19:19;2.92;;;1.88;;
53549;SDS011;67273;52.914;-0.982;2023-08-06T11:21:45;2.22;;;1.98;;
53549;SDS011;67273;52.914;-0.982;2023-08-06T11:24:12;2.67;;;1.90;;
53549;SDS011;67273;52.914;-0.982;2023-08-06T11:26:38;2.15;;;1.80;;
53549;SDS011;67273;52.914;-0.982;2023-08-06T11:29:05;2.53;;;1.90;;
53549;SDS011;67273;52.914;-0.982;2023-08-06T11:31:31;3.30;;;2.05;;
53549;SDS011;67273;52.914;-0.982;2023-08-06T11:33:58;1.88;;;1.75;;
53549;SDS011;67273;52.914;-0.982;2023-08-06T11:36:30;3.47;;;1.80;;
53549;SDS011;67273;52.914;-0.982;2023-08-06T11:38:56;1.80;;;1.70;;
53549;SDS011;67273;52.914;-0.982;2023-08-06T11:41:22;3.22;;;1.90;;
53549;SDS011;67273;52.914;-0.982;2023-08-06T11:43:48;2.35;;;1.83;;
53549;SDS011;67273;52.914;-0.982;2023-08-06T11:46:14;2.03;;;1.80;;
53549;SDS011;67273;52.914;-0.982;2023-08-06T11:48:50;4.03;;;2.05;;
53549;SDS011;67273;52.914;-0.982;2023-08-06T11:51:17;2.88;;;1.98;;
53549;SDS011;67273;52.914;-0.982;2023-08-06T11:53:46;2.88;;;1.90;;
53549;SDS011;67273;52.914;-0.982;2023-08-06T11:56:14;2.50;;;2.00;;
53549;SDS011;67273;52.914;-0.982;2023-08-06T11:58:40;3.03;;;2.10;;
53549;SDS011;67273;52.914;-0.982;2023-08-06T12:01:06;2.40;;;1.90;;
53549;SDS011;67273;52.914;-0.982;2023-08-06T12:03:32;2.97;;;2.03;;
53549;SDS011;67273;52.914;-0.982;2023-08-06T12:05:58;3.13;;;1.77;;
53549;SDS011;67273;52.914;-0.982;2023-08-06T12:08:27;2.38;;;1.67;;
53549;SDS011;67273;52.914;-0.982;2023-08-06T12:10:53;2.40;;;1.80;;
53549;SDS011;67273;52.914;-0.982;2023-08-06T12:13:19;2.22;;;1.90;;
53549;SDS011;67273;52.914;-0.982;2023-08-06T12:15:44;3.78;;;1.85;;
53549;SDS011;67273;52.914;-0.982;2023-08-06T12:18:10;2.28;;;2.00;;
53549;SDS011;67273;52.914;-0.982;2023-08-06T12:20:37;2.03;;;1.83;;
53549;SDS011;67273;52.914;-0.982;2023-08-06T12:23:03;3.25;;;1.70;;
53549;SDS011;67273;52.914;-0.982;2023-08-06T12:25:30;2.03;;;1.80;;
53549;SDS011;67273;52.914;-0.982;2023-08-06T12:27:56;2.53;;;1.80;;
53549;SDS011;67273;52.914;-0.982;2023-08-06T12:30:22;2.17;;;1.83;;
53549;SDS011;67273;52.914;-0.982;2023-08-06T12:32:48;1.73;;;1.60;;
53549;SDS011;67273;52.914;-0.982;2023-08-06T12:35:16;2.28;;;1.70;;
53549;SDS011;67273;52.914;-0.982;2023-08-06T12:37:42;2.30;;;1.70;;
53549;SDS011;67273;52.914;-0.982;2023-08-06T12:40:09;3.30;;;1.95;;
53549;SDS011;67273;52.914;-0.982;2023-08-06T12:42:36;2.30;;;1.80;;
53549;SDS011;67273;52.914;-0.982;2023-08-06T12:45:02;2.20;;;1.83;;
53549;SDS011;67273;52.914;-0.982;2023-08-06T12:47:29;2.10;;;1.90;;
53549;SDS011;67273;52.914;-0.982;2023-08-06T12:49:54;1.98;;;1.77;;
53549;SDS011;67273;52.914;-0.982;2023-08-06T12:52:20;2.15;;;1.90;;
53549;SDS011;67273;52.914;-0.982;2023-08-06T12:54:46;2.42;;;2.15;;
53549;SDS011;67273;52.914;-0.982;2023-08-06T12:57:11;3.03;;;1.80;;
53549;SDS011;67273;52.914;-0.982;2023-08-06T12:59:38;1.92;;;1.63;;
53549;SDS011;67273;52.914;-0.982;2023-08-06T13:02:05;2.03;;;1.77;;
53549;SDS011;67273;52.914;-0.982;2023-08-06T13:04:30;2.00;;;1.80;;
53549;SDS011;67273;52.914;-0.982;2023-08-06T13:06:56;1.90;;;1.73;;
53549;SDS011;67273;52.914;-0.982;2023-08-06T13:09:22;3.20;;;1.80;;
53549;SDS011;67273;52.914;-0.982;2023-08-06T13:11:48;1.90;;;1.70;;
53549;SDS011;67273;52.914;-0.982;2023-08-06T13:14:15;2.30;;;1.60;;
53549;SDS011;67273;52.914;-0.982;2023-08-06T13:16:43;1.92;;;1.40;;
53549;SDS011;67273;52.914;-0.982;2023-08-06T13:19:09;2.05;;;1.63;;
53549;SDS011;67273;52.914;-0.982;2023-08-06T13:21:57;2.85;;;1.70;;
53549;SDS011;67273;52.914;-0.982;2023-08-06T13:24:28;2.55;;;1.88;;
53549;SDS011;67273;52.914;-0.982;2023-08-06T13:26:54;1.98;;;1.80;;
53549;SDS011;67273;52.914;-0.982;2023-08-06T13:29:20;2.85;;;1.70;;
53549;SDS011;67273;52.914;-0.982;2023-08-06T13:31:48;3.13;;;1.80;;
53549;SDS011;67273;52.914;-0.982;2023-08-06T13:34:14;1.85;;;1.50;;
53549;SDS011;67273;52.914;-0.982;2023-08-06T13:36:42;2.15;;;1.60;;
53549;SDS011;67273;52.914;-0.982;2023-08-06T13:39:07;1.88;;;1.65;;
53549;SDS011;67273;52.914;-0.982;2023-08-06T13:41:33;1.90;;;1.70;;
53549;SDS011;67273;52.914;-0.982;2023-08-06T13:43:59;3.42;;;1.83;;
53549;SDS011;67273;52.914;-0.982;2023-08-06T13:46:25;3.72;;;1.60;;
53549;SDS011;67273;52.914;-0.982;2023-08-06T13:48:52;2.20;;;1.88;;
53549;SDS011;67273;52.914;-0.982;2023-08-06T13:51:18;1.73;;;1.60;;
53549;SDS011;67273;52.914;-0.982;2023-08-06T13:53:44;1.58;;;1.48;;
53549;SDS011;67273;52.914;-0.982;2023-08-06T13:56:09;1.80;;;1.65;;
53549;SDS011;67273;52.914;-0.982;2023-08-06T13:58:36;1.83;;;1.60;;
53549;SDS011;67273;52.914;-0.982;2023-08-06T14:01:02;3.45;;;1.70;;
53549;SDS011;67273;52.914;-0.982;2023-08-06T14:03:28;2.22;;;1.70;;
53549;SDS011;67273;52.914;-0.982;2023-08-06T14:05:55;2.05;;;1.60;;
53549;SDS011;67273;52.914;-0.982;2023-08-06T14:08:21;2.33;;;1.85;;
53549;SDS011;67273;52.914;-0.982;2023-08-06T14:10:48;1.63;;;1.52;;
53549;SDS011;67273;52.914;-0.982;2023-08-06T14:13:14;2.33;;;1.77;;
53549;SDS011;67273;52.914;-0.982;2023-08-06T14:15:40;2.50;;;1.70;;
53549;SDS011;67273;52.914;-0.982;2023-08-06T14:18:06;1.63;;;1.52;;
53549;SDS011;67273;52.914;-0.982;2023-08-06T14:20:33;3.10;;;1.60;;
53549;SDS011;67273;52.914;-0.982;2023-08-06T14:23:00;1.70;;;1.60;;
53549;SDS011;67273;52.914;-0.982;2023-08-06T14:25:26;1.77;;;1.50;;
53549;SDS011;67273;52.914;-0.982;2023-08-06T14:27:52;1.90;;;1.70;;
53549;SDS011;67273;52.914;-0.982;2023-08-06T14:30:18;1.92;;;1.70;;
53549;SDS011;67273;52.914;-0.982;2023-08-06T14:32:44;2.00;;;1.65;;
53549;SDS011;67273;52.914;-0.982;2023-08-06T14:35:09;1.70;;;1.50;;
53549;SDS011;67273;52.914;-0.982;2023-08-06T14:37:35;1.90;;;1.70;;